Time;durP1;ratioP1;P1;durP2;ratioP2;P2;SDS_P1;SDS_P2;PMS_P1;PMS_P2;Temp;Humidity;BMP_temperature;BMP_pressure;BME280_temperature;BME280_humidity;BME280_pressure;Samples;Min_cycle;Max_cycle;Signal;HPM_P1;HPM_P2
2021/04/29 00:01:15;;;;;;;18.15;9.78;;;;;;;4.18;100.00;101473.69;1785167;79;21179;-88
2021/04/29 00:03:44;;;;;;;15.63;10.32;;;;;;;4.18;100.00;101473.69;1785015;80;21123;-88
2021/04/29 00:06:13;;;;;;;16.25;10.58;;;;;;;4.13;100.00;101474.30;1785250;80;21072;-88
2021/04/29 00:08:42;;;;;;;23.22;11.43;;;;;;;3.96;100.00;101474.89;1785052;79;21135;-88
2021/04/29 00:11:11;;;;;;;17.55;11.65;;;;;;;3.96;100.00;101474.89;1785148;80;21369;-88
2021/04/29 00:13:40;;;;;;;17.70;11.48;;;;;;;3.92;100.00;101481.88;1780685;80;21535;-88
2021/04/29 00:16:09;;;;;;;20.60;11.78;;;;;;;3.88;100.00;101475.59;1780004;80;21140;-88
2021/04/29 00:18:38;;;;;;;22.50;11.40;;;;;;;3.89;100.00;101479.40;1779977;80;21235;-88
2021/04/29 00:21:06;;;;;;;20.75;12.23;;;;;;;3.95;100.00;101483.51;1779931;80;21147;-88
2021/04/29 00:23:34;;;;;;;27.70;14.00;;;;;;;3.95;100.00;101483.51;1780100;80;21360;-88
2021/04/29 00:26:02;;;;;;;33.73;17.67;;;;;;;3.98;100.00;101479.52;1779971;80;21116;-88
2021/04/29 00:28:31;;;;;;;215.80;99.60;;;;;;;3.96;100.00;101480.05;1779822;80;21203;-88
2021/04/29 00:30:59;;;;;;;154.97;73.07;;;;;;;3.94;100.00;101471.52;1779947;80;21172;-88
2021/04/29 00:33:27;;;;;;;61.28;33.33;;;;;;;3.94;100.00;101468.94;1779903;80;21160;-88
2021/04/29 00:35:55;;;;;;;65.12;30.97;;;;;;;3.92;100.00;101472.86;1779942;80;22128;-88
2021/04/29 00:38:24;;;;;;;31.93;17.52;;;;;;;3.85;100.00;101473.11;1779881;80;21132;-88
2021/04/29 00:40:52;;;;;;;31.07;16.50;;;;;;;3.85;100.00;101473.94;1779937;80;21163;-88
2021/04/29 00:43:20;;;;;;;30.68;15.68;;;;;;;3.79;100.00;101472.86;1779916;80;21092;-88
2021/04/29 00:45:49;;;;;;;23.95;13.83;;;;;;;3.74;100.00;101469.59;1779986;80;21151;-88
2021/04/29 00:48:17;;;;;;;25.72;13.93;;;;;;;3.75;100.00;101477.27;1779820;80;21365;-88
2021/04/29 00:50:45;;;;;;;16.77;10.98;;;;;;;3.73;100.00;101475.18;1779885;80;21468;-88
2021/04/29 00:53:14;;;;;;;19.82;11.90;;;;;;;3.73;100.00;101475.18;1779979;79;21128;-88
2021/04/29 00:55:42;;;;;;;18.30;12.00;;;;;;;3.72;100.00;101474.81;1779875;80;21057;-88
2021/04/29 00:58:11;;;;;;;31.57;16.60;;;;;;;3.70;100.00;101476.59;1780108;80;21159;-88
2021/04/29 01:00:40;;;;;;;20.20;13.05;;;;;;;3.62;100.00;101479.86;1782271;79;21568;-88
2021/04/29 01:03:22;;;;;;;15.58;10.70;;;;;;;3.43;100.00;101482.17;1799996;79;21163;-88
2021/04/29 01:05:54;;;;;;;19.17;9.83;;;;;;;3.28;100.00;101487.34;1804173;79;21148;-88
2021/04/29 01:08:33;;;;;;;15.65;9.65;;;;;;;3.12;100.00;101485.23;1803046;79;21151;-88
2021/04/29 01:11:16;;;;;;;15.03;9.73;;;;;;;2.96;100.00;101482.29;1795604;79;21167;-87
2021/04/29 01:13:51;;;;;;;26.85;12.75;;;;;;;2.88;100.00;101488.52;1808215;79;21367;-88
2021/04/29 01:16:22;;;;;;;22.87;13.50;;;;;;;2.81;100.00;101486.56;1808212;79;21127;-87
2021/04/29 01:18:54;;;;;;;32.73;15.93;;;;;;;2.83;100.00;101493.80;1809077;79;21194;-87
2021/04/29 01:21:25;;;;;;;25.82;14.53;;;;;;;2.83;100.00;101489.94;1777997;79;21563;-88
2021/04/29 01:24:07;;;;;;;22.10;13.83;;;;;;;2.79;100.00;101487.91;1809000;79;21140;-88
2021/04/29 01:26:52;;;;;;;21.75;13.08;;;;;;;2.71;100.00;101489.84;1808989;78;21368;-88
2021/04/29 01:29:25;;;;;;;23.07;12.53;;;;;;;2.70;100.00;101488.16;1809011;79;22182;-88
2021/04/29 01:31:55;;;;;;;23.83;12.47;;;;;;;2.78;100.00;101491.36;1809065;78;21511;-88
2021/04/29 01:34:28;;;;;;;25.40;15.27;;;;;;;2.87;100.00;101483.84;1809331;78;21060;-88
2021/04/29 01:36:57;;;;;;;32.15;14.73;;;;;;;2.96;100.00;101490.43;1782910;79;21116;-88
2021/04/29 01:39:27;;;;;;;26.80;14.15;;;;;;;3.00;100.00;101485.61;1785101;80;21192;-88
2021/04/29 01:41:56;;;;;;;28.65;14.60;;;;;;;3.04;100.00;101482.50;1785011;80;21541;-88
2021/04/29 01:44:27;;;;;;;26.25;14.75;;;;;;;3.02;100.00;101490.25;1785173;80;21141;-88
2021/04/29 01:47:00;;;;;;;29.40;13.53;;;;;;;3.06;100.00;101504.72;1785081;80;21555;-88
2021/04/29 01:49:29;;;;;;;28.32;13.10;;;;;;;3.08;100.00;101500.81;1785354;80;21123;-88
2021/04/29 01:52:00;;;;;;;21.42;11.38;;;;;;;3.13;100.00;101498.93;1785256;80;22288;-88
2021/04/29 01:54:31;;;;;;;16.32;10.80;;;;;;;3.23;100.00;101509.82;1785062;80;21189;-88
2021/04/29 01:56:59;;;;;;;17.95;11.70;;;;;;;3.26;100.00;101505.84;1785172;80;21206;-88
2021/04/29 01:59:27;;;;;;;23.62;12.13;;;;;;;3.30;100.00;101499.73;1785162;80;21147;-88
2021/04/29 02:01:55;;;;;;;18.23;11.25;;;;;;;3.28;100.00;101498.92;1784976;79;21206;-88
2021/04/29 02:04:24;;;;;;;29.48;15.08;;;;;;;3.26;100.00;101500.70;1785063;79;21295;-88
2021/04/29 02:06:52;;;;;;;24.65;14.45;;;;;;;3.26;100.00;101504.56;1785113;80;21147;-88
2021/04/29 02:09:21;;;;;;;27.82;13.15;;;;;;;3.23;100.00;101505.50;1785166;79;21115;-88
2021/04/29 02:11:57;;;;;;;27.93;13.70;;;;;;;3.23;100.00;101505.50;1785092;80;21135;-88
2021/04/29 02:14:46;;;;;;;23.45;12.95;;;;;;;3.20;100.00;101500.89;1777550;79;21056;-88
2021/04/29 02:17:35;;;;;;;21.73;11.48;;;;;;;3.23;100.00;101513.22;1776322;79;21155;-88
2021/04/29 02:20:06;;;;;;;18.70;11.73;;;;;;;3.27;100.00;101509.69;1774415;79;21140;-87
2021/04/29 02:22:39;;;;;;;26.55;12.60;;;;;;;3.30;100.00;101512.14;1776949;80;21159;-88
2021/04/29 02:25:11;;;;;;;25.15;12.28;;;;;;;3.34;100.00;101507.74;1776849;79;21168;-88
2021/04/29 02:27:40;;;;;;;21.85;12.88;;;;;;;3.31;100.00;101507.86;1776855;80;21584;-88
2021/04/29 02:30:13;;;;;;;23.77;12.93;;;;;;;3.27;100.00;101510.11;1777046;80;22278;-88
2021/04/29 02:32:42;;;;;;;22.73;12.98;;;;;;;3.24;100.00;101510.22;1777094;79;25893;-88
2021/04/29 02:35:13;;;;;;;21.75;12.95;;;;;;;3.20;100.00;101513.76;1777109;80;21174;-88
2021/04/29 02:37:45;;;;;;;18.80;11.15;;;;;;;3.14;100.00;101519.92;1776974;79;21351;-88
2021/04/29 02:40:15;;;;;;;19.77;12.00;;;;;;;3.11;100.00;101517.00;1777044;80;21156;-88
2021/04/29 02:42:46;;;;;;;21.33;12.82;;;;;;;3.09;100.00;101520.05;1777644;79;21155;-88
2021/04/29 02:45:17;;;;;;;17.92;12.13;;;;;;;3.04;100.00;101523.67;1777012;80;21104;-88
2021/04/29 02:47:49;;;;;;;30.37;16.70;;;;;;;2.97;100.00;101521.71;1777230;80;21195;-88
2021/04/29 02:50:24;;;;;;;36.25;18.90;;;;;;;2.91;100.00;101521.90;1776997;79;21168;-88
2021/04/29 02:52:53;;;;;;;31.40;17.27;;;;;;;2.73;100.00;101522.80;1777084;80;21111;-88
2021/04/29 02:55:24;;;;;;;32.20;17.77;;;;;;;2.60;100.00;101518.89;1777067;80;21564;-88
2021/04/29 02:58:05;;;;;;;41.85;18.77;;;;;;;2.46;100.00;101516.23;1777027;79;21532;-88
2021/04/29 03:00:35;;;;;;;44.20;21.37;;;;;;;2.36;100.00;101522.52;1777101;79;21218;-88
2021/04/29 03:03:06;;;;;;;42.38;20.92;;;;;;;2.31;100.00;101519.20;1777251;79;21116;-88
2021/04/29 03:05:36;;;;;;;34.78;19.07;;;;;;;2.29;100.00;101524.83;1777140;79;21526;-88
2021/04/29 03:08:05;;;;;;;45.40;19.40;;;;;;;2.25;100.00;101525.80;1777014;79;21371;-88
2021/04/29 03:10:34;;;;;;;49.77;22.65;;;;;;;2.22;100.00;101521.59;1776940;80;21163;-88
2021/04/29 03:13:04;;;;;;;50.58;24.20;;;;;;;2.31;100.00;101527.78;1777974;80;21218;-89
2021/04/29 03:15:32;;;;;;;57.55;27.65;;;;;;;2.35;100.00;101528.09;1780412;80;21119;-88
2021/04/29 03:21:55;;;;;;;44.88;25.45;;;;;;;2.41;100.00;101538.66;1780224;79;21363;-88
2021/04/29 03:24:23;;;;;;;48.25;25.45;;;;;;;2.52;100.00;101539.20;1779910;80;21234;-88
2021/04/29 03:26:53;;;;;;;46.18;24.90;;;;;;;2.59;100.00;101537.78;1780435;79;21064;-89
2021/04/29 03:33:13;;;;;;;48.25;22.20;;;;;;;2.78;100.00;101536.38;1780553;80;21132;-88
2021/04/29 03:35:42;;;;;;;44.65;23.95;;;;;;;2.97;100.00;101542.30;1780381;80;21361;-88
2021/04/29 03:38:11;;;;;;;39.45;20.15;;;;;;;3.07;100.00;101548.87;1780145;80;21147;-89
2021/04/29 03:40:39;;;;;;;53.40;22.10;;;;;;;3.12;100.00;101550.03;1780196;80;21152;-88
2021/04/29 03:43:07;;;;;;;35.48;20.40;;;;;;;3.24;100.00;101552.23;1787360;79;21159;-88
2021/04/29 03:45:37;;;;;;;35.48;21.55;;;;;;;3.41;100.00;101543.17;1799304;79;21179;-89
2021/04/29 03:48:07;;;;;;;57.88;21.68;;;;;;;3.47;100.00;101543.84;1780453;79;21527;-89
2021/04/29 03:54:03;;;;;;;36.05;21.93;;;;;;;3.55;100.00;101543.59;1806843;79;21115;-88
2021/04/29 03:56:32;;;;;;;101.35;22.02;;;;;;;3.63;100.00;101533.89;1792486;79;21198;-89
2021/04/29 04:03:14;;;;;;;24.90;15.00;;;;;;;3.82;100.00;101544.05;1804820;79;21144;-86
2021/04/29 04:10:08;;;;;;;30.12;15.63;;;;;;;4.10;100.00;101542.28;1795089;79;21116;-88
2021/04/29 04:13:16;;;;;;;22.70;15.53;;;;;;;4.23;100.00;101543.14;1807365;79;21099;-87
2021/04/29 04:15:52;;;;;;;29.00;17.60;;;;;;;4.23;100.00;101543.14;1805540;79;21060;-92
2021/04/29 04:18:24;;;;;;;26.25;18.37;;;;;;;4.30;100.00;101548.95;1805645;79;21138;-91
2021/04/29 04:20:52;;;;;;;25.30;17.55;;;;;;;4.51;100.00;101554.66;1802832;79;21214;-91
2021/04/29 04:23:20;;;;;;;29.85;18.17;;;;;;;4.51;100.00;101554.66;1806840;79;21151;-90
2021/04/29 04:25:49;;;;;;;31.20;16.90;;;;;;;4.60;100.00;101551.36;1797865;79;21171;-90
2021/04/29 04:28:17;;;;;;;34.27;18.05;;;;;;;4.69;100.00;101548.00;1772020;79;21140;-90
2021/04/29 04:30:45;;;;;;;42.60;19.17;;;;;;;4.83;100.00;101546.22;1801290;79;21365;-91
2021/04/29 04:33:13;;;;;;;31.65;19.90;;;;;;;5.00;100.00;101545.63;1797271;79;21143;-90
2021/04/29 04:35:42;;;;;;;29.20;20.77;;;;;;;5.23;100.00;101546.50;1794088;79;21218;-92
2021/04/29 04:38:16;;;;;;;38.55;22.30;;;;;;;5.34;100.00;101546.09;1807056;79;21167;-92
2021/04/29 04:40:45;;;;;;;39.63;22.13;;;;;;;5.44;100.00;101537.53;1782951;79;21072;-91
2021/04/29 04:43:15;;;;;;;36.20;23.02;;;;;;;5.52;100.00;101538.93;1780625;80;21437;-90
2021/04/29 04:45:43;;;;;;;35.25;22.22;;;;;;;5.59;100.00;101534.34;1780256;80;21171;-90
2021/04/29 04:48:12;;;;;;;36.95;23.32;;;;;;;5.65;100.00;101539.27;1785388;79;21564;-91
2021/04/29 04:50:40;;;;;;;35.33;23.75;;;;;;;5.71;100.00;101536.06;1806724;79;21147;-90
2021/04/29 05:01:28;;;;;;;32.17;23.07;;;;;;;5.96;100.00;101523.83;1780396;80;21099;-92
2021/04/29 05:08:19;;;;;;;30.97;20.30;;;;;;;6.24;100.00;101517.52;1796519;79;21182;-88
2021/04/29 05:15:11;;;;;;;27.90;16.77;;;;;;;6.60;100.00;101518.15;1801281;77;21135;-88
2021/04/29 05:18:05;;;;;;;26.97;17.70;;;;;;;6.89;100.00;101522.94;1798684;79;21567;-89
2021/04/29 05:24:57;;;;;;;25.48;16.20;;;;;;;7.16;100.00;101523.42;1782088;79;21143;-88
2021/04/29 05:31:48;;;;;;;30.30;17.70;;;;;;;7.54;100.00;101535.47;1767157;81;21110;-87
2021/04/29 05:38:40;;;;;;;25.27;17.57;;;;;;;7.90;100.00;101532.84;1767149;81;21145;-87
2021/04/29 05:45:31;;;;;;;22.10;17.52;;;;;;;8.23;100.00;101526.07;1767331;81;21137;-88
2021/04/29 05:52:04;;;;;;;21.65;15.68;;;;;;;8.57;100.00;101523.52;1774606;79;21559;-88
2021/04/29 05:58:56;;;;;;;19.98;14.35;;;;;;;8.93;100.00;101511.64;1776400;79;21143;-88
2021/04/29 06:05:52;;;;;;;14.75;11.70;;;;;;;9.41;100.00;101506.89;1793147;79;21167;-87
2021/04/29 06:08:22;;;;;;;13.62;10.90;;;;;;;9.65;100.00;101504.69;1795323;79;21132;-88
2021/04/29 06:15:14;;;;;;;14.98;9.80;;;;;;;9.96;100.00;101508.11;1766185;80;21157;-88
2021/04/29 06:18:31;;;;;;;12.73;9.88;;;;;;;10.17;100.00;101507.32;1765130;80;21135;-88
2021/04/29 06:25:28;;;;;;;10.58;8.90;;;;;;;10.46;100.00;101513.88;1765071;81;21181;-88
2021/04/29 06:32:21;;;;;;;9.73;7.17;;;;;;;10.71;100.00;101517.59;1765113;81;21549;-88
2021/04/29 06:39:14;;;;;;;8.45;6.75;;;;;;;11.03;100.00;101516.88;1765123;81;21245;-88
2021/04/29 06:46:06;;;;;;;8.00;6.05;;;;;;;11.26;100.00;101511.98;1765139;81;21375;-88
2021/04/29 06:52:58;;;;;;;8.63;4.55;;;;;;;11.47;95.75;101507.64;1765154;81;21141;-87
2021/04/29 06:59:51;;;;;;;5.87;4.60;;;;;;;11.80;75.67;101513.72;1765031;81;21157;-87
2021/04/29 07:06:43;;;;;;;6.72;5.00;;;;;;;11.99;76.39;101506.83;1765067;81;20995;-87
2021/04/29 07:13:35;;;;;;;5.60;4.40;;;;;;;12.18;70.31;101516.05;1765093;81;21130;-84
2021/04/29 07:20:10;;;;;;;5.20;4.05;;;;;;;12.21;68.42;101518.46;1765131;81;21149;-84
2021/04/29 07:26:43;;;;;;;4.72;3.80;;;;;;;12.44;69.54;101518.17;1765263;81;21573;-83
2021/04/29 07:33:35;;;;;;;4.37;3.58;;;;;;;12.80;56.23;101509.19;1765153;81;21561;-87
2021/04/29 07:40:32;;;;;;;6.15;4.25;;;;;;;13.09;56.68;101505.00;1765232;81;21011;-87
2021/04/29 07:47:25;;;;;;;6.90;4.67;;;;;;;13.37;58.69;101495.98;1765264;81;21466;-87
2021/04/29 07:54:17;;;;;;;6.80;4.33;;;;;;;13.40;60.28;101502.80;1765175;81;20932;-87
2021/04/29 08:01:10;;;;;;;6.22;4.90;;;;;;;13.52;60.02;101495.35;1765272;81;21050;-87
2021/04/29 08:08:03;;;;;;;6.47;4.28;;;;;;;13.33;61.92;101484.55;1765188;81;21141;-87
2021/04/29 08:14:57;;;;;;;6.87;5.10;;;;;;;13.60;61.19;101480.86;1764872;79;21537;-88
2021/04/29 08:26:10;;;;;;;7.28;5.12;;;;;;;14.37;54.08;101467.20;1767418;80;21626;-87
2021/04/29 08:33:03;;;;;;;7.90;5.80;;;;;;;14.56;64.76;101452.17;1771096;81;21136;-87
2021/04/29 08:39:55;;;;;;;10.60;7.62;;;;;;;14.70;68.83;101440.63;1771120;81;21147;-87
2021/04/29 08:46:47;;;;;;;8.38;7.53;;;;;;;14.88;66.83;101441.40;1771142;81;21362;-87
2021/04/29 08:53:41;;;;;;;8.55;7.65;;;;;;;15.01;73.65;101433.37;1771171;81;21143;-88
2021/04/29 09:00:15;;;;;;;8.33;6.08;;;;;;;15.11;70.28;101422.01;1770982;81;21151;-87
2021/04/29 09:07:16;;;;;;;7.62;6.03;;;;;;;15.31;59.83;101420.86;1771698;80;21128;-88
2021/04/29 09:18:13;;;;;;;7.28;6.22;;;;;;;15.69;63.07;101398.95;1763456;80;21171;-89
2021/04/29 09:21:37;;;;;;;5.92;5.33;;;;;;;15.81;64.07;101401.83;1651779;83;21148;-89
2021/04/29 09:32:03;;;;;;;6.30;5.58;;;;;;;16.22;62.15;101393.53;1729092;82;21144;-89
2021/04/29 09:39:09;;;;;;;6.60;5.60;;;;;;;16.35;55.54;101385.87;1739228;82;21425;-89
2021/04/29 09:50:30;;;;;;;10.28;7.08;;;;;;;16.26;57.93;101386.70;1736023;82;21132;-89
2021/04/29 10:01:45;;;;;;;11.73;6.55;;;;;;;15.86;66.07;101379.14;1777713;80;21132;-92
2021/04/29 10:08:38;;;;;;;9.60;7.00;;;;;;;16.30;61.30;101367.91;1782592;79;21069;-90
2021/04/29 10:15:34;;;;;;;12.45;7.00;;;;;;;16.62;62.07;101362.06;1767297;81;21164;-90
2021/04/29 10:22:27;;;;;;;6.92;6.22;;;;;;;16.94;61.14;101350.02;1768729;81;21009;-90
2021/04/29 10:29:20;;;;;;;7.10;6.30;;;;;;;16.63;57.52;101347.46;1802843;79;21174;-89
2021/04/29 10:36:00;;;;;;;5.97;5.45;;;;;;;16.63;61.13;101350.59;1800052;79;21151;-89
2021/04/29 10:47:28;;;;;;;8.08;7.30;;;;;;;16.20;62.09;101338.96;1809830;79;21068;-89
2021/04/29 10:58:44;;;;;;;11.53;7.47;;;;;;;17.13;60.00;101328.11;1809982;79;21135;-90
2021/04/29 11:05:29;;;;;;;7.17;6.50;;;;;;;17.37;57.38;101320.70;1805084;78;21104;-91
2021/04/29 11:12:22;;;;;;;7.53;6.83;;;;;;;16.76;57.44;101316.13;1786708;79;21551;-88
2021/04/29 11:15:21;;;;;;;7.42;6.72;;;;;;;16.70;61.18;101313.07;1796262;79;21116;-88
2021/04/29 11:18:16;;;;;;;9.38;7.50;;;;;;;16.80;60.16;101308.30;1775145;79;22105;-88
2021/04/29 11:24:49;;;;;;;8.58;6.45;;;;;;;17.25;54.03;101296.36;1784354;79;21124;-87
2021/04/29 11:31:19;;;;;;;8.93;7.03;;;;;;;17.92;55.88;101287.83;1790991;79;21067;-87
2021/04/29 11:37:47;;;;;;;9.98;6.97;;;;;;;18.13;50.04;101281.02;1809770;79;21468;-88
2021/04/29 11:48:13;;;;;;;6.70;5.42;;;;;;;18.38;51.77;101263.30;1809918;79;21087;-88
2021/04/29 11:54:46;;;;;;;8.88;5.42;;;;;;;18.53;49.37;101251.23;1741716;81;21561;-88
2021/04/29 12:01:41;;;;;;;9.10;5.10;;;;;;;18.79;51.15;101242.51;1785666;79;21137;-87
2021/04/29 12:08:27;;;;;;;9.20;5.60;;;;;;;18.92;49.82;101232.90;1786353;78;21121;-89
2021/04/29 12:15:20;;;;;;;5.15;4.65;;;;;;;19.11;49.55;101229.72;1781307;80;21165;-90
2021/04/29 12:21:39;;;;;;;4.83;4.25;;;;;;;19.06;47.93;101219.63;1772935;79;21107;-90
2021/04/29 12:28:40;;;;;;;5.30;4.20;;;;;;;19.13;46.90;101209.28;1752168;81;21186;-89
2021/04/29 12:31:16;;;;;;;8.23;5.72;;;;;;;19.04;47.09;101207.08;1751638;81;21070;-90
2021/04/29 12:34:08;;;;;;;9.48;4.67;;;;;;;19.12;45.23;101202.34;1751380;80;21193;-90
2021/04/29 12:41:08;;;;;;;5.50;5.00;;;;;;;19.29;47.17;101199.28;1752261;81;21193;-89
2021/04/29 12:55:43;;;;;;;5.15;4.75;;;;;;;19.34;46.87;101183.80;1751514;81;21055;-90
2021/04/29 12:58:13;;;;;;;6.10;5.50;;;;;;;19.32;46.54;101181.30;1751565;81;21351;-91
2021/04/29 13:00:53;;;;;;;5.08;4.67;;;;;;;19.26;44.98;101170.06;1751574;80;21150;-90
2021/04/29 13:03:45;;;;;;;4.78;4.28;;;;;;;19.26;45.12;101166.61;1802523;79;22827;-88
2021/04/29 13:10:18;;;;;;;4.87;4.47;;;;;;;19.28;46.18;101167.26;1743569;81;21361;-89
2021/04/29 13:12:55;;;;;;;6.17;4.80;;;;;;;19.29;46.21;101168.91;1758720;80;21148;-89
2021/04/29 13:15:27;;;;;;;5.15;4.65;;;;;;;19.22;46.86;101164.28;1767879;80;21139;-89
2021/04/29 13:17:55;;;;;;;5.65;4.92;;;;;;;19.18;46.26;101159.47;1770608;80;21061;-89
2021/04/29 13:20:24;;;;;;;6.35;5.20;;;;;;;19.10;45.47;101164.72;1757467;80;21533;-90
2021/04/29 13:22:53;;;;;;;7.47;5.05;;;;;;;18.96;45.46;101160.84;1772688;80;21200;-89
2021/04/29 13:25:26;;;;;;;5.80;5.00;;;;;;;18.94;45.16;101161.52;1765850;80;21223;-89
2021/04/29 13:27:56;;;;;;;16.97;5.85;;;;;;;18.95;45.97;101152.12;1774548;80;21621;-89
2021/04/29 13:30:24;;;;;;;9.23;5.60;;;;;;;19.03;45.53;101157.91;1774625;80;21208;-90
2021/04/29 13:32:53;;;;;;;10.25;7.15;;;;;;;19.10;46.07;101154.16;1708020;83;21574;-89
2021/04/29 13:35:21;;;;;;;6.80;5.90;;;;;;;19.16;45.49;101150.88;1774592;80;22311;-89
2021/04/29 13:37:51;;;;;;;6.78;5.72;;;;;;;19.15;45.59;101149.25;1774812;80;21156;-90
2021/04/29 13:40:48;;;;;;;6.10;5.50;;;;;;;19.04;46.51;101148.54;1774829;80;21155;-90
2021/04/29 13:43:23;;;;;;;8.08;5.12;;;;;;;18.87;46.06;101154.69;1774881;80;21081;-91
2021/04/29 13:45:51;;;;;;;6.47;5.67;;;;;;;18.71;47.98;101148.81;1775048;80;21143;-90
2021/04/29 13:48:29;;;;;;;8.15;6.10;;;;;;;18.56;46.46;101150.70;1764621;80;22306;-91
2021/04/29 13:51:27;;;;;;;6.97;5.95;;;;;;;18.40;47.51;101152.76;1744214;82;21125;-90
2021/04/29 13:53:55;;;;;;;10.32;5.78;;;;;;;18.32;49.96;101147.89;1744087;82;21130;-90
2021/04/29 13:56:23;;;;;;;7.33;5.62;;;;;;;18.32;49.80;101139.98;1744040;82;21142;-90
2021/04/29 13:58:51;;;;;;;5.35;4.83;;;;;;;18.33;49.30;101144.28;1744152;82;21173;-90
2021/04/29 14:01:21;;;;;;;6.00;5.33;;;;;;;18.29;48.11;101139.81;1744127;82;21437;-90
2021/04/29 14:03:50;;;;;;;7.35;5.12;;;;;;;18.20;49.67;101136.30;1744042;81;21130;-90
2021/04/29 14:06:19;;;;;;;5.62;5.12;;;;;;;18.13;49.47;101136.06;1723361;82;21204;-90
2021/04/29 14:08:52;;;;;;;6.08;5.40;;;;;;;18.12;49.58;101137.55;1743717;80;21187;-89
2021/04/29 14:11:19;;;;;;;6.05;5.55;;;;;;;18.10;48.41;101130.28;1768134;80;21128;-90
2021/04/29 14:13:48;;;;;;;7.12;5.53;;;;;;;18.07;48.47;101131.89;1774555;80;22062;-90
2021/04/29 14:16:18;;;;;;;6.22;5.65;;;;;;;17.99;48.99;101123.94;1774114;80;21128;-89
2021/04/29 14:18:48;;;;;;;5.65;5.05;;;;;;;17.91;50.07;101134.69;1774152;80;21608;-90
2021/04/29 14:21:16;;;;;;;7.55;5.85;;;;;;;17.82;52.16;101135.62;1687716;84;21087;-89
2021/04/29 14:23:45;;;;;;;5.95;5.45;;;;;;;17.78;51.35;101128.51;1773984;80;21128;-89
2021/04/29 14:26:17;;;;;;;9.80;5.70;;;;;;;17.79;50.75;101130.64;1707578;83;21360;-89
2021/04/29 14:28:47;;;;;;;8.95;5.40;;;;;;;17.78;49.51;101128.51;1774051;80;21171;-89
2021/04/29 14:31:15;;;;;;;8.93;6.00;;;;;;;17.71;51.29;101130.56;1706301;83;21643;-90
2021/04/29 14:33:45;;;;;;;5.72;5.22;;;;;;;17.63;51.83;101125.55;1764188;80;21194;-89
2021/04/29 14:36:15;;;;;;;9.85;5.90;;;;;;;17.56;54.15;101127.59;1743584;80;21170;-89
2021/04/29 14:38:44;;;;;;;5.92;5.35;;;;;;;17.48;57.15;101125.23;1701581;80;21379;-89
2021/04/29 14:41:12;;;;;;;9.90;5.25;;;;;;;17.41;58.62;101125.48;1714315;82;21184;-90
2021/04/29 14:43:41;;;;;;;29.25;6.80;;;;;;;17.37;58.82;101121.97;1665583;84;21172;-91
2021/04/29 14:46:09;;;;;;;4.97;4.47;;;;;;;17.28;57.83;101119.75;1707770;84;21102;-91
2021/04/29 14:48:37;;;;;;;7.30;4.70;;;;;;;17.23;60.25;101120.66;1752710;80;21125;-91
2021/04/29 14:51:05;;;;;;;5.75;5.25;;;;;;;17.19;63.29;101113.55;1759195;80;21493;-91
2021/04/29 14:53:37;;;;;;;6.75;5.80;;;;;;;17.15;65.33;101116.14;1743450;82;21168;-89
2021/04/29 14:56:40;;;;;;;6.08;5.47;;;;;;;17.12;63.78;101116.42;1743555;82;21125;-89
2021/04/29 14:59:09;;;;;;;6.03;5.37;;;;;;;17.07;63.01;101108.16;1743632;82;21473;-89
2021/04/29 15:01:38;;;;;;;5.28;4.65;;;;;;;17.00;63.03;101105.27;1743572;82;21481;-90
2021/04/29 15:04:06;;;;;;;11.63;6.00;;;;;;;16.94;63.16;101108.02;1739689;81;22277;-90
2021/04/29 15:06:35;;;;;;;7.83;6.10;;;;;;;16.89;65.64;101111.52;1739730;82;21542;-89
2021/04/29 15:09:04;;;;;;;7.55;6.03;;;;;;;16.84;65.92;101108.00;1739900;82;21148;-90
2021/04/29 15:11:35;;;;;;;9.55;6.60;;;;;;;16.83;64.68;101109.47;1729398;81;22107;-90
2021/04/29 15:14:03;;;;;;;6.53;5.92;;;;;;;16.81;64.89;101104.83;1743222;81;21132;-90
2021/04/29 15:16:32;;;;;;;7.22;5.60;;;;;;;16.79;64.23;101104.14;1679559;84;21352;-90
2021/04/29 15:19:02;;;;;;;8.38;5.85;;;;;;;16.77;63.13;101104.80;1760986;81;21180;-90
2021/04/29 15:21:33;;;;;;;10.28;5.83;;;;;;;16.73;64.62;101099.00;1761062;81;21557;-90
2021/04/29 15:24:01;;;;;;;7.55;5.03;;;;;;;16.69;67.08;101104.19;1680622;84;28197;-91
2021/04/29 15:26:30;;;;;;;6.53;5.33;;;;;;;16.61;68.97;101102.28;1761083;81;21611;-90
2021/04/29 15:29:06;;;;;;;12.05;5.83;;;;;;;16.55;69.55;101101.05;1651339;85;22112;-91
2021/04/29 15:31:34;;;;;;;7.83;5.20;;;;;;;16.49;69.48;101103.41;1761036;80;21145;-90
2021/04/29 15:34:04;;;;;;;14.63;6.60;;;;;;;16.45;71.70;101103.37;1734686;81;21180;-90
2021/04/29 15:36:33;;;;;;;9.33;5.58;;;;;;;16.37;72.51;101100.97;1739113;81;21186;-90
2021/04/29 15:39:02;;;;;;;12.07;5.72;;;;;;;16.31;73.25;101100.19;1739390;81;21540;-90
2021/04/29 15:41:30;;;;;;;6.45;5.70;;;;;;;16.24;76.30;101101.73;1739975;81;21198;-90
2021/04/29 15:43:58;;;;;;;16.95;5.37;;;;;;;16.17;77.64;101102.80;1750843;81;21168;-90
2021/04/29 15:46:26;;;;;;;9.13;6.37;;;;;;;16.11;79.88;101102.02;1753569;81;21187;-91
2021/04/29 15:48:55;;;;;;;29.72;20.92;;;;;;;16.06;82.00;101098.99;1743304;81;21211;-90
2021/04/29 15:51:24;;;;;;;19.95;15.72;;;;;;;16.00;87.16;101096.43;1739127;80;21184;-90
2021/04/29 15:53:53;;;;;;;9.00;8.05;;;;;;;15.94;88.17;101091.73;1742086;81;21550;-91
2021/04/29 15:56:25;;;;;;;8.98;6.60;;;;;;;15.89;87.03;101095.28;1736073;81;21218;-91
2021/04/29 15:58:51;;;;;;;13.88;7.35;;;;;;;15.84;89.57;101098.31;1734516;81;21239;-90
2021/04/29 16:01:19;;;;;;;47.33;8.48;;;;;;;15.76;91.80;101096.33;1726571;81;21588;-90
2021/04/29 16:03:48;;;;;;;11.50;6.08;;;;;;;15.70;94.34;101088.20;1758861;81;21172;-90
2021/04/29 16:06:17;;;;;;;7.92;5.78;;;;;;;15.61;95.60;101090.68;1761216;81;21372;-91
2021/04/29 16:08:45;;;;;;;10.98;6.55;;;;;;;15.57;96.74;101091.09;1760848;81;21097;-90
2021/04/29 16:11:14;;;;;;;16.17;6.95;;;;;;;15.50;98.66;101085.55;1720613;82;21135;-90
2021/04/29 16:13:43;;;;;;;22.82;7.62;;;;;;;15.48;100.00;101091.89;1745956;81;21575;-90
2021/04/29 16:16:11;;;;;;;26.68;7.92;;;;;;;15.43;100.00;101086.56;1743352;81;21250;-91
2021/04/29 16:18:39;;;;;;;12.70;6.70;;;;;;;15.41;100.00;101085.89;1715342;82;21331;-91
2021/04/29 16:21:08;;;;;;;19.77;6.95;;;;;;;15.39;100.00;101089.12;1748455;81;21252;-90
2021/04/29 16:23:36;;;;;;;17.82;6.25;;;;;;;15.36;100.00;101086.75;1754139;81;21058;-90
2021/04/29 16:26:06;;;;;;;15.43;6.22;;;;;;;15.30;100.00;101083.37;1733687;81;21181;-90
2021/04/29 16:28:34;;;;;;;28.80;7.87;;;;;;;15.25;100.00;101086.89;1742434;81;21160;-90
2021/04/29 16:31:04;;;;;;;21.35;7.80;;;;;;;15.20;100.00;101085.97;1741927;81;21367;-90
2021/04/29 16:33:32;;;;;;;31.30;7.55;;;;;;;15.17;100.00;101082.80;1744147;80;21189;-90
2021/04/29 16:36:00;;;;;;;19.48;7.92;;;;;;;15.11;100.00;101082.34;1743693;81;21223;-90
2021/04/29 16:38:28;;;;;;;46.35;8.90;;;;;;;15.06;100.00;101092.91;1741041;82;21161;-90
2021/04/29 16:41:02;;;;;;;23.83;7.03;;;;;;;14.98;100.00;101093.56;1740693;81;21210;-90
2021/04/29 16:43:31;;;;;;;21.00;7.17;;;;;;;14.93;100.00;101088.71;1711086;82;22315;-90
2021/04/29 16:45:59;;;;;;;31.60;8.05;;;;;;;14.90;100.00;101098.14;1728733;81;21146;-90
2021/04/29 16:48:29;;;;;;;121.47;11.97;;;;;;;14.86;100.00;101095.45;1748963;81;21199;-90
2021/04/29 16:50:59;;;;;;;107.37;12.45;;;;;;;14.83;100.00;101093.92;1683525;84;21200;-90
2021/04/29 16:53:27;;;;;;;82.12;9.25;;;;;;;14.81;100.00;101091.09;1692249;84;21208;-90
2021/04/29 16:55:57;;;;;;;40.03;8.78;;;;;;;14.79;100.00;101095.63;1719112;82;22075;-90
2021/04/29 16:58:25;;;;;;;37.55;7.75;;;;;;;14.77;100.00;101097.54;1728839;82;21132;-90
2021/04/29 17:00:53;;;;;;;20.43;7.95;;;;;;;14.75;100.00;101091.13;1750931;81;21168;-90
2021/04/29 17:03:21;;;;;;;8.58;6.75;;;;;;;14.69;100.00;101095.59;1761066;80;21192;-90
2021/04/29 17:05:49;;;;;;;33.92;8.90;;;;;;;14.65;100.00;101092.37;1761286;81;21088;-90
2021/04/29 17:08:18;;;;;;;27.10;7.90;;;;;;;14.62;100.00;101096.55;1761150;81;21369;-91